createdAt,value
2022-08-24T00:01:45.912Z,16.5
2022-08-24T00:07:23.747Z,16.5
2022-08-24T00:12:49.812Z,16.4
2022-08-24T00:18:09.938Z,16.4
2022-08-24T00:23:59.380Z,16.5
2022-08-24T00:29:26.979Z,17.1
2022-08-24T00:34:56.183Z,17.3
2022-08-24T00:40:25.429Z,17.5
2022-08-24T00:46:11.198Z,17.8
2022-08-24T00:51:49.314Z,17.6
2022-08-24T00:57:25.105Z,17.3
2022-08-24T01:02:54.018Z,16.5
2022-08-24T01:08:24.704Z,16.7
2022-08-24T01:14:07.428Z,16.7
2022-08-24T01:19:46.806Z,16.7
2022-08-24T01:25:21.801Z,16.7
2022-08-24T01:30:55.594Z,16.2
2022-08-24T01:36:12.394Z,16
2022-08-24T01:41:45.818Z,15.9
2022-08-24T01:47:35.579Z,15.8
2022-08-24T01:53:19.499Z,16
2022-08-24T01:58:47.728Z,15.9
2022-08-24T02:04:17.764Z,15.6
2022-08-24T02:10:03.178Z,15.5
2022-08-24T02:15:31.912Z,15.3
2022-08-24T02:21:07.199Z,15.3
2022-08-24T02:26:43.818Z,15.1
2022-08-24T02:32:14.135Z,15
2022-08-24T02:37:57.724Z,15
2022-08-24T02:43:09.760Z,14.7
2022-08-24T02:49:09.177Z,14.5
2022-08-24T02:54:38.444Z,14.7
2022-08-24T03:00:12.106Z,14.8
2022-08-24T03:05:54.953Z,15
2022-08-24T03:11:04.739Z,14.5
2022-08-24T03:16:47.106Z,14.1
2022-08-24T03:22:37.593Z,14.2
2022-08-24T03:28:08.617Z,14.3
2022-08-24T03:33:22.074Z,14.1
2022-08-24T03:39:19.720Z,14
2022-08-24T03:44:55.698Z,14.1
2022-08-24T03:50:14.584Z,14.2
2022-08-24T03:55:52.015Z,14.2
2022-08-24T04:01:20.907Z,14.1
2022-08-24T04:07:03.084Z,14.2
2022-08-24T04:12:35.373Z,14.3
2022-08-24T04:18:11.141Z,14.1
2022-08-24T04:23:29.004Z,14
2022-08-24T04:29:13.476Z,14.2
2022-08-24T04:34:54.542Z,14.1
2022-08-24T04:40:19.401Z,14
2022-08-24T04:45:47.969Z,14.1
2022-08-24T04:51:23.093Z,14
2022-08-24T04:57:06.777Z,14
2022-08-24T05:02:45.378Z,14.3
2022-08-24T05:08:09.525Z,14.6
2022-08-24T05:13:39.895Z,14.7
2022-08-24T05:19:25.845Z,15
2022-08-24T05:24:59.205Z,15.1
2022-08-24T05:30:46.267Z,15.6
2022-08-24T05:36:16.499Z,16.3
2022-08-24T05:41:30.858Z,16.7
2022-08-24T05:47:03.699Z,17.1
2022-08-24T05:52:44.304Z,17
2022-08-24T05:58:40.407Z,16.7
2022-08-24T06:03:58.159Z,17.1
2022-08-24T06:09:48.962Z,17.3
2022-08-24T06:15:05.628Z,18.1
2022-08-24T06:20:38.144Z,18.6
2022-08-24T06:26:37.482Z,18.1
2022-08-24T06:32:11.842Z,17.2
2022-08-24T06:37:35.084Z,17.9
2022-08-24T06:43:00.372Z,17.9
2022-08-24T06:48:31.164Z,18.5
2022-08-24T06:54:27.264Z,18.8
2022-08-24T07:00:00.242Z,19.3
2022-08-24T07:05:46.574Z,19.2
2022-08-24T07:11:18.165Z,19.4
2022-08-24T07:16:36.811Z,19.7
2022-08-24T07:22:24.754Z,19.6
2022-08-24T07:28:09.917Z,20
2022-08-24T07:33:47.557Z,20.1
2022-08-24T07:39:07.167Z,20.1
2022-08-24T07:44:51.401Z,20.2
2022-08-24T07:50:15.834Z,20.7
2022-08-24T07:55:54.741Z,20.4
2022-08-24T08:01:57.020Z,21.3
2022-08-24T08:07:21.513Z,21.5
2022-08-24T08:13:11.132Z,21.7
2022-08-24T08:18:37.414Z,21.8
2022-08-24T08:24:10.759Z,21.8
2022-08-24T08:29:49.139Z,21.8
2022-08-24T08:35:19.877Z,21.8
2022-08-24T08:40:59.512Z,22.1
2022-08-24T08:46:40.763Z,23.1
2022-08-24T08:52:16.075Z,22.9
2022-08-24T08:58:08.176Z,23.1
2022-08-24T09:03:40.939Z,23.2
2022-08-24T09:09:22.437Z,23.2
2022-08-24T09:14:51.869Z,23.5
2022-08-24T09:20:32.375Z,23.5
2022-08-24T09:26:18.547Z,23.5
2022-08-24T09:31:52.103Z,23.6
2022-08-24T09:37:25.899Z,23.6
2022-08-24T09:42:51.723Z,23.8
2022-08-24T09:48:46.744Z,24.4
2022-08-24T09:54:07.829Z,24.2
2022-08-24T09:59:49.653Z,24.1
2022-08-24T10:05:48.111Z,24.2
2022-08-24T10:11:04.062Z,24.4
2022-08-24T10:16:45.199Z,24.4
2022-08-24T10:22:30.709Z,24.6
2022-08-24T10:28:14.937Z,24.6
2022-08-24T10:33:44.361Z,24.8
2022-08-24T10:39:30.871Z,24.9
2022-08-24T10:44:49.745Z,25.2
2022-08-24T10:50:39.645Z,25.2
2022-08-24T10:56:31.921Z,25.2
2022-08-24T11:01:53.798Z,25.2
2022-08-24T11:07:24.247Z,25.4
2022-08-24T11:13:22.651Z,25.8
2022-08-24T11:19:05.437Z,25.6
2022-08-24T11:24:30.350Z,25.7
2022-08-24T11:30:02.943Z,25.9
2022-08-24T11:35:34.935Z,25.9
2022-08-24T11:41:22.594Z,26.3
2022-08-24T11:47:03.560Z,26.5
2022-08-24T11:52:48.206Z,26.4
2022-08-24T11:58:17.633Z,26.7
2022-08-24T12:03:56.891Z,27
2022-08-24T12:09:33.381Z,26.7
2022-08-24T12:15:14.782Z,26.5
2022-08-24T12:21:12.641Z,26.7
2022-08-24T12:26:27.593Z,26.7
2022-08-24T12:32:20.762Z,26.8
2022-08-24T12:38:00.946Z,27
2022-08-24T12:43:21.009Z,27.4
2022-08-24T12:49:01.031Z,27.2
2022-08-24T12:54:46.580Z,27.1
2022-08-24T13:00:21.035Z,27.5
2022-08-24T13:06:15.955Z,27.3
2022-08-24T13:11:42.412Z,27.3
2022-08-24T13:17:29.161Z,27.5
2022-08-24T13:23:04.245Z,27.4
2022-08-24T13:28:44.099Z,27.3
2022-08-24T13:34:30.202Z,27.2
2022-08-24T13:40:16.639Z,27.2
2022-08-24T13:45:41.080Z,27.2
2022-08-24T13:51:27.363Z,27.1
2022-08-24T13:57:09.547Z,27.2
2022-08-24T14:02:35.427Z,27.2
2022-08-24T14:08:12.545Z,27.4
2022-08-24T14:14:02.772Z,27.3
2022-08-24T14:19:29.600Z,27.2
2022-08-24T14:25:14.624Z,27.2
2022-08-24T14:30:50.245Z,27.3
2022-08-24T14:36:20.779Z,27.6
2022-08-24T14:42:21.540Z,27.8
2022-08-24T14:48:01.725Z,27.7
2022-08-24T14:53:37.200Z,27.8
2022-08-24T14:59:23.463Z,27.7
2022-08-24T15:04:55.296Z,28
2022-08-24T15:10:41.940Z,27.4
2022-08-24T15:16:11.406Z,27.4
2022-08-24T15:21:54.712Z,27.2
2022-08-24T15:27:33.506Z,27.3
2022-08-24T15:33:07.524Z,27.4
2022-08-24T15:38:34.088Z,27.3
2022-08-24T15:44:06.784Z,27.3
2022-08-24T15:49:49.662Z,27.3
2022-08-24T15:55:41.730Z,27
2022-08-24T16:01:02.425Z,27
2022-08-24T16:06:45.015Z,27
2022-08-24T16:12:29.340Z,27
2022-08-24T16:17:51.806Z,27
2022-08-24T16:23:27.055Z,27.1
2022-08-24T16:29:11.667Z,27
2022-08-24T16:35:03.628Z,27.2
2022-08-24T16:40:42.439Z,27.1
2022-08-24T16:46:23.898Z,26.9
2022-08-24T16:51:45.195Z,26.8
2022-08-24T16:57:38.210Z,26.7
2022-08-24T17:02:56.599Z,26.8
2022-08-24T17:08:57.317Z,26.8
2022-08-24T17:14:21.636Z,26.5
2022-08-24T17:19:48.096Z,26.4
2022-08-24T17:25:26.617Z,26.2
2022-08-24T17:31:11.984Z,26.2
2022-08-24T17:36:53.917Z,25.8
2022-08-24T17:42:51.093Z,25.6
2022-08-24T17:48:13.377Z,25.6
2022-08-24T17:54:00.903Z,25.5
2022-08-24T17:59:25.173Z,25.1
2022-08-24T18:05:04.147Z,24.6
2022-08-24T18:10:43.037Z,24.4
2022-08-24T18:16:24.732Z,24.2
2022-08-24T18:21:44.320Z,24.2
2022-08-24T18:27:39.853Z,24
2022-08-24T18:32:50.975Z,24
2022-08-24T18:38:44.655Z,23.8
2022-08-24T18:44:17.181Z,23.8
2022-08-24T18:49:42.433Z,23.6
2022-08-24T18:55:16.180Z,23.3
2022-08-24T19:01:02.628Z,23.1
2022-08-24T19:06:50.099Z,22.7
2022-08-24T19:12:15.887Z,22.5
2022-08-24T19:18:01.366Z,22.2
2022-08-24T19:23:27.932Z,21.9
2022-08-24T19:28:48.081Z,21.9
2022-08-24T19:34:34.260Z,21.8
2022-08-24T19:40:12.495Z,21.7
2022-08-24T19:45:31.393Z,21.7
2022-08-24T19:51:26.894Z,21.8
2022-08-24T19:56:49.881Z,21.7
2022-08-24T20:02:37.303Z,21.6
2022-08-24T20:07:52.274Z,21.7
2022-08-24T20:13:31.570Z,21.8
2022-08-24T20:19:14.130Z,21.7
2022-08-24T20:25:01.012Z,21.6
2022-08-24T20:30:16.673Z,21.5
2022-08-24T20:35:57.428Z,21.4
2022-08-24T20:41:44.693Z,21.3
2022-08-24T20:47:10.561Z,21.1
2022-08-24T20:52:36.513Z,21
2022-08-24T20:58:14.461Z,21
2022-08-24T21:04:11.596Z,20.9
2022-08-24T21:09:44.755Z,20.8
2022-08-24T21:15:16.450Z,20.7
2022-08-24T21:20:36.572Z,20.6
2022-08-24T21:26:31.684Z,20.6
2022-08-24T21:31:59.645Z,20.7
2022-08-24T21:37:26.323Z,20.5
2022-08-24T21:42:50.873Z,19
2022-08-24T21:48:41.537Z,18.4
2022-08-24T21:54:07.565Z,18.4
2022-08-24T21:59:46.797Z,18.7
2022-08-24T22:05:19.541Z,20.1
2022-08-24T22:10:57.767Z,20.1
2022-08-24T22:16:36.849Z,19.9
2022-08-24T22:22:10.918Z,20.1
2022-08-24T22:27:43.897Z,20.2
2022-08-24T22:33:06.709Z,20
2022-08-24T22:38:50.655Z,20
2022-08-24T22:44:14.145Z,19.8
2022-08-24T22:50:09.995Z,19.5
2022-08-24T22:55:22.775Z,18.1
2022-08-24T23:01:06.497Z,17.5
2022-08-24T23:06:38.146Z,17.5
2022-08-24T23:12:11.549Z,17.7
2022-08-24T23:17:49.175Z,18
2022-08-24T23:23:16.224Z,17.8
2022-08-24T23:28:57.716Z,17.7
2022-08-24T23:34:43.604Z,17.8
2022-08-24T23:40:12.070Z,17.9
2022-08-24T23:45:36.535Z,18.1
2022-08-24T23:51:18.495Z,17.9
2022-08-24T23:57:06.968Z,17.8
